Time;durP1;ratioP1;P1;durP2;ratioP2;P2;SDS_P1;SDS_P2;PMS_P1;PMS_P2;Temp;Humidity;BMP_temperature;BMP_pressure;BME280_temperature;BME280_humidity;BME280_pressure;Samples;Min_cycle;Max_cycle;Signal;HPM_P1;HPM_P2
2023/04/17 00:00:17;;;;;;;20.30;18.10;;;;;;;;;;5042319;28;20459;-77
2023/04/17 00:02:45;;;;;;;20.50;17.83;;;;;;;;;;5042067;28;20501;-77
2023/04/17 00:05:13;;;;;;;20.57;18.47;;;;;;;;;;5042085;28;20454;-76
2023/04/17 00:07:55;;;;;;;20.33;18.00;;;;;;;;;;5041953;28;20561;-76
2023/04/17 00:10:24;;;;;;;21.53;17.97;;;;;;;;;;5041859;28;20443;-75
2023/04/17 00:12:53;;;;;;;20.27;17.67;;;;;;;;;;5041418;28;20494;-77
2023/04/17 00:15:23;;;;;;;20.70;18.60;;;;;;;;;;5039722;28;20538;-77
2023/04/17 00:17:52;;;;;;;18.83;17.00;;;;;;;;;;5044577;28;20542;-76
2023/04/17 00:20:20;;;;;;;22.17;18.60;;;;;;;;;;5059478;28;20541;-76
2023/04/17 00:22:48;;;;;;;23.70;19.33;;;;;;;;;;5060387;28;20521;-76
2023/04/17 00:25:17;;;;;;;21.30;19.10;;;;;;;;;;5059649;28;20454;-75
2023/04/17 00:27:47;;;;;;;19.70;17.50;;;;;;;;;;5059812;28;20485;-76
2023/04/17 00:30:18;;;;;;;22.17;19.67;;;;;;;;;;5061875;28;20930;-77
2023/04/17 00:32:48;;;;;;;19.93;17.83;;;;;;;;;;5064018;28;20449;-78
2023/04/17 00:35:24;;;;;;;20.77;17.67;;;;;;;;;;5064732;28;20442;-76
2023/04/17 00:37:55;;;;;;;20.77;18.47;;;;;;;;;;5060966;28;20469;-76
2023/04/17 00:40:30;;;;;;;20.00;18.00;;;;;;;;;;5059771;28;20457;-77
2023/04/17 00:43:01;;;;;;;23.80;19.73;;;;;;;;;;5059299;28;20543;-76
2023/04/17 00:45:32;;;;;;;21.50;17.80;;;;;;;;;;5058991;28;20421;-75
2023/04/17 00:48:05;;;;;;;19.67;17.57;;;;;;;;;;5058918;28;20473;-76
2023/04/17 00:50:37;;;;;;;20.97;18.77;;;;;;;;;;5059590;28;20448;-76
2023/04/17 00:53:04;;;;;;;19.67;17.50;;;;;;;;;;5059692;28;20480;-75
2023/04/17 00:55:33;;;;;;;19.93;17.93;;;;;;;;;;5056849;28;20454;-76
2023/04/17 00:58:03;;;;;;;21.70;19.13;;;;;;;;;;5055893;28;20557;-76
2023/04/17 01:00:31;;;;;;;21.77;19.47;;;;;;;;;;5055385;28;20461;-75
2023/04/17 01:03:02;;;;;;;22.80;20.37;;;;;;;;;;5055762;28;20446;-75
2023/04/17 01:05:34;;;;;;;21.43;18.20;;;;;;;;;;5055675;28;20449;-76
2023/04/17 01:08:02;;;;;;;19.83;17.73;;;;;;;;;;5054445;28;20748;-78
2023/04/17 01:10:30;;;;;;;21.27;19.00;;;;;;;;;;5055462;28;20434;-76
2023/04/17 01:13:04;;;;;;;20.90;18.40;;;;;;;;;;5054882;28;20430;-78
2023/04/17 01:15:33;;;;;;;19.97;17.93;;;;;;;;;;5056399;28;20477;-77
2023/04/17 01:18:03;;;;;;;22.60;18.60;;;;;;;;;;5054718;28;20469;-77
2023/04/17 01:20:33;;;;;;;20.00;17.50;;;;;;;;;;5055025;28;20442;-76
2023/04/17 01:23:03;;;;;;;21.00;18.80;;;;;;;;;;5054659;28;20603;-76
2023/04/17 01:25:32;;;;;;;22.33;18.93;;;;;;;;;;5054079;28;20451;-77
2023/04/17 01:28:04;;;;;;;21.50;18.17;;;;;;;;;;5052531;28;20508;-76
2023/04/17 01:30:32;;;;;;;19.33;17.23;;;;;;;;;;5052406;28;20449;-75
2023/04/17 01:32:59;;;;;;;21.80;19.50;;;;;;;;;;5056526;28;20484;-75
2023/04/17 01:35:30;;;;;;;20.30;18.10;;;;;;;;;;5057864;28;20453;-76
2023/04/17 01:38:01;;;;;;;19.53;17.53;;;;;;;;;;5057951;28;20442;-76
2023/04/17 01:43:22;;;;;;;20.83;18.50;;;;;;;;;;5051183;28;20437;-76
2023/04/17 01:45:50;;;;;;;20.63;18.10;;;;;;;;;;5053410;28;20449;-77
2023/04/17 01:48:21;;;;;;;22.17;19.50;;;;;;;;;;5055147;28;20449;-75
2023/04/17 01:50:49;;;;;;;20.90;18.77;;;;;;;;;;5054901;28;20448;-75
2023/04/17 01:53:21;;;;;;;20.40;18.20;;;;;;;;;;5053728;28;20739;-77
2023/04/17 01:55:51;;;;;;;22.30;19.50;;;;;;;;;;5053192;28;21084;-79
2023/04/17 01:58:22;;;;;;;20.20;18.00;;;;;;;;;;5051994;28;20452;-76
2023/04/17 02:00:50;;;;;;;21.20;18.30;;;;;;;;;;5051981;28;20433;-76
2023/04/17 02:03:19;;;;;;;21.53;18.47;;;;;;;;;;5051165;28;20446;-77
2023/04/17 02:05:48;;;;;;;23.77;19.70;;;;;;;;;;5051515;28;20445;-76
2023/04/17 02:08:16;;;;;;;23.03;20.63;;;;;;;;;;5051342;28;20458;-76
2023/04/17 02:10:47;;;;;;;23.63;20.07;;;;;;;;;;5050236;28;20457;-76
2023/04/17 02:13:19;;;;;;;22.67;19.93;;;;;;;;;;5051282;28;20524;-76
2023/04/17 02:15:48;;;;;;;25.70;19.40;;;;;;;;;;5050991;28;20508;-76
2023/04/17 02:18:17;;;;;;;22.43;19.00;;;;;;;;;;5041796;28;20545;-76
2023/04/17 02:20:54;;;;;;;23.17;20.33;;;;;;;;;;5031334;28;20516;-76
2023/04/17 02:23:28;;;;;;;25.17;19.60;;;;;;;;;;5031912;28;20484;-78
2023/04/17 02:25:56;;;;;;;21.80;19.10;;;;;;;;;;5031601;28;20446;-76
2023/04/17 02:28:31;;;;;;;26.00;21.23;;;;;;;;;;5031677;28;20459;-76
2023/04/17 02:31:00;;;;;;;22.20;19.80;;;;;;;;;;5030754;28;20478;-76
2023/04/17 02:33:29;;;;;;;21.93;19.60;;;;;;;;;;5031059;28;20509;-75
2023/04/17 02:35:57;;;;;;;21.83;19.50;;;;;;;;;;5030944;28;20462;-75
2023/04/17 02:38:29;;;;;;;26.37;21.40;;;;;;;;;;5031059;28;20474;-77
2023/04/17 02:40:57;;;;;;;22.27;19.93;;;;;;;;;;5032339;28;20463;-77
2023/04/17 02:43:29;;;;;;;23.70;19.93;;;;;;;;;;5031944;28;20451;-76
2023/04/17 02:46:00;;;;;;;22.97;20.50;;;;;;;;;;5032103;28;20458;-78
2023/04/17 02:48:27;;;;;;;23.83;20.63;;;;;;;;;;5033378;28;20950;-76
2023/04/17 02:50:55;;;;;;;21.37;19.23;;;;;;;;;;5031707;28;20521;-75
2023/04/17 02:53:24;;;;;;;24.97;21.33;;;;;;;;;;5032214;28;20470;-77
2023/04/17 02:55:53;;;;;;;23.53;19.90;;;;;;;;;;5032485;28;20961;-76
2023/04/17 02:58:25;;;;;;;24.67;21.90;;;;;;;;;;5033078;28;20451;-75
2023/04/17 03:00:55;;;;;;;24.43;20.10;;;;;;;;;;5033422;28;20538;-76
2023/04/17 03:03:29;;;;;;;32.80;22.10;;;;;;;;;;5034284;28;20916;-76
2023/04/17 03:06:01;;;;;;;23.87;20.70;;;;;;;;;;5032994;28;20446;-76
2023/04/17 03:08:34;;;;;;;27.90;21.07;;;;;;;;;;5031749;28;20982;-75
2023/04/17 03:11:03;;;;;;;24.30;20.07;;;;;;;;;;5031754;28;20457;-76
2023/04/17 03:13:32;;;;;;;21.23;19.03;;;;;;;;;;5032435;28;20527;-75
2023/04/17 03:16:00;;;;;;;21.70;19.13;;;;;;;;;;5033001;28;20461;-77
2023/04/17 03:18:29;;;;;;;22.20;19.40;;;;;;;;;;5043800;28;20442;-77
2023/04/17 03:20:57;;;;;;;23.03;20.20;;;;;;;;;;5053044;28;20507;-75
2023/04/17 03:23:29;;;;;;;23.63;20.90;;;;;;;;;;5055470;28;20434;-75
2023/04/17 03:25:57;;;;;;;21.73;19.27;;;;;;;;;;5055382;28;20545;-76
2023/04/17 03:28:28;;;;;;;25.17;21.30;;;;;;;;;;5055394;28;20438;-75
2023/04/17 03:30:58;;;;;;;23.50;20.53;;;;;;;;;;5055438;28;20453;-77
2023/04/17 03:33:26;;;;;;;22.27;19.93;;;;;;;;;;5054599;28;20454;-75
2023/04/17 03:35:55;;;;;;;22.20;19.70;;;;;;;;;;5054592;28;20472;-76
2023/04/17 03:38:24;;;;;;;23.80;20.17;;;;;;;;;;5055289;28;20941;-76
2023/04/17 03:40:52;;;;;;;23.57;19.90;;;;;;;;;;5055001;28;20463;-76
2023/04/17 03:43:19;;;;;;;24.67;21.13;;;;;;;;;;5054158;28;20809;-76
2023/04/17 03:45:47;;;;;;;24.20;20.37;;;;;;;;;;5054045;28;20442;-76
2023/04/17 03:48:14;;;;;;;24.60;20.07;;;;;;;;;;5053826;28;20496;-77
2023/04/17 03:50:42;;;;;;;23.43;19.90;;;;;;;;;;5046059;28;20465;-77
2023/04/17 03:53:13;;;;;;;22.60;19.70;;;;;;;;;;5036298;28;20447;-76
2023/04/17 03:55:40;;;;;;;25.00;20.60;;;;;;;;;;5043457;28;20480;-76
2023/04/17 03:58:08;;;;;;;26.07;21.27;;;;;;;;;;5041789;28;20486;-76
2023/04/17 04:00:37;;;;;;;24.47;21.07;;;;;;;;;;5053407;28;20544;-75
2023/04/17 04:03:05;;;;;;;22.40;20.00;;;;;;;;;;5036452;28;20592;-76
2023/04/17 04:05:32;;;;;;;25.50;22.77;;;;;;;;;;5033727;28;20443;-76
2023/04/17 04:08:01;;;;;;;24.27;19.60;;;;;;;;;;5033752;28;20477;-76
2023/04/17 04:10:43;;;;;;;23.10;20.37;;;;;;;;;;5034183;28;20526;-75
2023/04/17 04:13:11;;;;;;;21.30;19.10;;;;;;;;;;5033641;28;20470;-76
2023/04/17 04:15:47;;;;;;;21.37;19.07;;;;;;;;;;5033725;28;20474;-76
2023/04/17 04:18:18;;;;;;;22.30;19.60;;;;;;;;;;5034000;28;20467;-76
2023/04/17 04:20:45;;;;;;;22.93;20.40;;;;;;;;;;5033097;28;20493;-77
2023/04/17 04:23:15;;;;;;;24.83;19.23;;;;;;;;;;5032604;28;20439;-76
2023/04/17 04:25:44;;;;;;;24.87;20.80;;;;;;;;;;5033899;28;20454;-76
2023/04/17 04:28:13;;;;;;;22.00;19.50;;;;;;;;;;5032782;28;20562;-76
2023/04/17 04:30:40;;;;;;;22.87;20.00;;;;;;;;;;5033176;28;20437;-76
2023/04/17 04:33:07;;;;;;;24.87;20.00;;;;;;;;;;5031806;28;20443;-78
2023/04/17 04:35:35;;;;;;;24.37;20.57;;;;;;;;;;5032771;28;20474;-75
2023/04/17 04:38:03;;;;;;;24.37;21.80;;;;;;;;;;5033391;28;20957;-75
2023/04/17 04:40:34;;;;;;;24.97;19.40;;;;;;;;;;5034884;28;20462;-75
2023/04/17 04:43:05;;;;;;;22.80;20.40;;;;;;;;;;5053321;28;20454;-76
2023/04/17 04:45:33;;;;;;;23.27;19.43;;;;;;;;;;5053547;28;20450;-76
2023/04/17 04:48:02;;;;;;;22.37;19.50;;;;;;;;;;5040095;28;20455;-75
2023/04/17 04:50:29;;;;;;;25.23;19.87;;;;;;;;;;5033348;28;20521;-77
2023/04/17 04:53:01;;;;;;;22.63;20.27;;;;;;;;;;5032635;28;20537;-75
2023/04/17 04:55:29;;;;;;;21.57;18.40;;;;;;;;;;5033099;28;20510;-76
2023/04/17 04:57:58;;;;;;;23.63;19.87;;;;;;;;;;5032936;28;20543;-75
2023/04/17 05:00:27;;;;;;;27.03;21.43;;;;;;;;;;5033039;28;20465;-77
2023/04/17 05:02:55;;;;;;;23.40;19.93;;;;;;;;;;5033042;28;20457;-77
2023/04/17 05:05:24;;;;;;;24.33;20.97;;;;;;;;;;5033583;28;20504;-76
2023/04/17 05:07:55;;;;;;;23.03;19.77;;;;;;;;;;5033449;28;20470;-76
2023/04/17 05:10:22;;;;;;;25.43;20.20;;;;;;;;;;5033811;28;20457;-76
2023/04/17 05:12:50;;;;;;;23.30;20.60;;;;;;;;;;5034016;28;20450;-75
2023/04/17 05:15:18;;;;;;;21.33;18.83;;;;;;;;;;5033726;28;20478;-75
2023/04/17 05:17:50;;;;;;;22.90;20.13;;;;;;;;;;5033371;28;20498;-77
2023/04/17 05:20:21;;;;;;;25.07;20.13;;;;;;;;;;5033533;28;20516;-78
2023/04/17 05:22:48;;;;;;;21.93;19.57;;;;;;;;;;5033423;28;20458;-78
2023/04/17 05:25:16;;;;;;;24.03;20.80;;;;;;;;;;5035327;28;20508;-77
2023/04/17 05:27:43;;;;;;;25.27;21.10;;;;;;;;;;5036689;28;20502;-75
2023/04/17 05:30:12;;;;;;;23.53;20.27;;;;;;;;;;5045148;28;20438;-79
2023/04/17 05:32:39;;;;;;;24.00;20.50;;;;;;;;;;5043571;28;20443;-77
2023/04/17 05:35:11;;;;;;;23.40;20.40;;;;;;;;;;5043408;28;20482;-78
2023/04/17 05:37:39;;;;;;;23.83;21.03;;;;;;;;;;5043269;28;20467;-75
2023/04/17 05:40:08;;;;;;;21.30;19.00;;;;;;;;;;5040853;28;21016;-77
2023/04/17 05:42:36;;;;;;;23.80;19.70;;;;;;;;;;5041495;28;20451;-75
2023/04/17 05:45:03;;;;;;;23.07;19.10;;;;;;;;;;5055966;28;20445;-76
2023/04/17 05:47:31;;;;;;;21.57;19.17;;;;;;;;;;5052488;28;20472;-77
2023/04/17 05:49:59;;;;;;;20.97;18.77;;;;;;;;;;5052233;28;20459;-76
2023/04/17 05:52:28;;;;;;;23.40;18.57;;;;;;;;;;5051934;28;20456;-78
2023/04/17 05:54:55;;;;;;;21.40;18.73;;;;;;;;;;5043578;28;20569;-76
2023/04/17 05:57:23;;;;;;;23.90;20.23;;;;;;;;;;5036869;28;20470;-76
2023/04/17 05:59:50;;;;;;;22.60;18.20;;;;;;;;;;5037148;28;20513;-75
2023/04/17 06:02:18;;;;;;;20.60;18.50;;;;;;;;;;5035819;28;20538;-75
2023/04/17 06:04:45;;;;;;;20.63;18.43;;;;;;;;;;5034813;28;20437;-76
2023/04/17 06:07:13;;;;;;;21.07;18.90;;;;;;;;;;5034592;28;20493;-75
2023/04/17 06:09:42;;;;;;;22.80;19.70;;;;;;;;;;5035566;28;20447;-75
2023/04/17 06:12:14;;;;;;;21.43;17.60;;;;;;;;;;5033192;28;20462;-76
2023/04/17 06:14:43;;;;;;;21.40;19.10;;;;;;;;;;5033966;28;20475;-75
2023/04/17 06:17:12;;;;;;;23.33;18.77;;;;;;;;;;5051457;28;20984;-75
2023/04/17 06:19:40;;;;;;;21.53;19.33;;;;;;;;;;5054114;28;20437;-75
2023/04/17 06:22:07;;;;;;;24.83;21.10;;;;;;;;;;5055042;28;20432;-76
2023/04/17 06:24:36;;;;;;;20.13;18.03;;;;;;;;;;5056616;28;20507;-75
2023/04/17 06:27:05;;;;;;;20.40;18.30;;;;;;;;;;5055529;28;20466;-77
2023/04/17 06:29:33;;;;;;;21.63;19.33;;;;;;;;;;5055252;28;20437;-75
2023/04/17 06:32:01;;;;;;;20.47;18.23;;;;;;;;;;5055497;28;20440;-76
2023/04/17 06:34:28;;;;;;;22.20;19.53;;;;;;;;;;5050270;28;20449;-76
2023/04/17 06:36:56;;;;;;;21.57;18.97;;;;;;;;;;5052761;28;20477;-77
2023/04/17 06:39:23;;;;;;;21.93;18.27;;;;;;;;;;5051200;28;20457;-75
2023/04/17 06:41:51;;;;;;;22.00;19.03;;;;;;;;;;5053090;28;20481;-75
2023/04/17 06:44:20;;;;;;;21.40;19.20;;;;;;;;;;5051668;28;21003;-76
2023/04/17 06:46:47;;;;;;;20.13;18.03;;;;;;;;;;5051007;28;20488;-76
2023/04/17 06:49:15;;;;;;;21.73;19.30;;;;;;;;;;5044521;28;20451;-76
2023/04/17 06:51:44;;;;;;;19.80;17.60;;;;;;;;;;5032287;28;20437;-75
2023/04/17 06:54:12;;;;;;;22.20;18.90;;;;;;;;;;5032293;28;20599;-76
2023/04/17 06:56:40;;;;;;;22.23;18.80;;;;;;;;;;5033718;28;21077;-77
2023/04/17 06:59:08;;;;;;;20.53;18.23;;;;;;;;;;5036334;28;20450;-77
2023/04/17 07:01:39;;;;;;;19.10;17.17;;;;;;;;;;5036885;28;20443;-78
2023/04/17 07:04:07;;;;;;;19.30;17.23;;;;;;;;;;5036183;28;20454;-77
2023/04/17 07:06:35;;;;;;;19.77;17.27;;;;;;;;;;5036633;28;20482;-77
2023/04/17 07:09:03;;;;;;;20.60;17.63;;;;;;;;;;5036672;28;20464;-77
2023/04/17 07:11:33;;;;;;;24.53;17.40;;;;;;;;;;5044098;28;20530;-77
2023/04/17 07:14:00;;;;;;;18.73;16.60;;;;;;;;;;5046131;28;20450;-79
2023/04/17 07:16:28;;;;;;;19.40;17.30;;;;;;;;;;5045794;28;20895;-77
2023/04/17 07:18:57;;;;;;;20.93;18.33;;;;;;;;;;5059632;28;20499;-77
2023/04/17 07:21:25;;;;;;;19.13;17.13;;;;;;;;;;5067693;28;20499;-77
2023/04/17 07:23:53;;;;;;;23.20;18.20;;;;;;;;;;5064894;28;20449;-76
2023/04/17 07:26:21;;;;;;;20.17;17.87;;;;;;;;;;5064235;28;20465;-75
2023/04/17 07:28:48;;;;;;;21.67;17.00;;;;;;;;;;5065886;28;20457;-75
2023/04/17 07:31:15;;;;;;;21.47;18.10;;;;;;;;;;5063816;28;20445;-76
2023/04/17 07:33:43;;;;;;;17.93;16.03;;;;;;;;;;5064739;28;20449;-76
2023/04/17 07:36:12;;;;;;;18.13;16.27;;;;;;;;;;5064341;28;20560;-76
2023/04/17 07:38:40;;;;;;;18.60;16.03;;;;;;;;;;5065949;28;20486;-77
2023/04/17 07:41:08;;;;;;;20.43;17.17;;;;;;;;;;5066132;28;20458;-77
2023/04/17 07:43:36;;;;;;;18.70;15.30;;;;;;;;;;5066819;28;20460;-77
2023/04/17 07:46:03;;;;;;;16.00;14.30;;;;;;;;;;5066403;28;20472;-76
2023/04/17 07:48:30;;;;;;;17.73;15.80;;;;;;;;;;5069053;28;20480;-75
2023/04/17 07:51:00;;;;;;;18.43;15.80;;;;;;;;;;5070150;28;20467;-75
2023/04/17 07:53:29;;;;;;;18.77;14.50;;;;;;;;;;5068197;28;20460;-76
2023/04/17 07:55:59;;;;;;;19.97;16.13;;;;;;;;;;5067856;28;20531;-76
2023/04/17 07:58:27;;;;;;;18.57;15.03;;;;;;;;;;5067663;28;20483;-77
2023/04/17 08:00:54;;;;;;;17.03;15.23;;;;;;;;;;5067841;28;20450;-75
2023/04/17 08:03:22;;;;;;;16.77;15.17;;;;;;;;;;5064523;28;20512;-77
2023/04/17 08:05:50;;;;;;;17.10;15.10;;;;;;;;;;5064695;28;20442;-78
2023/04/17 08:08:18;;;;;;;18.63;16.30;;;;;;;;;;5063098;28;20534;-77
2023/04/17 08:10:47;;;;;;;17.10;14.10;;;;;;;;;;5065228;28;20476;-77
2023/04/17 08:13:14;;;;;;;16.80;14.20;;;;;;;;;;5067183;28;20832;-75
2023/04/17 08:15:42;;;;;;;15.27;13.77;;;;;;;;;;5066765;28;20533;-77
2023/04/17 08:18:10;;;;;;;14.77;13.27;;;;;;;;;;5066342;28;20465;-76
2023/04/17 08:20:38;;;;;;;14.50;13.00;;;;;;;;;;5067114;28;20481;-76
2023/04/17 08:23:06;;;;;;;13.83;12.50;;;;;;;;;;5067615;28;20501;-76
2023/04/17 08:25:33;;;;;;;13.37;12.07;;;;;;;;;;5067609;28;20925;-77
2023/04/17 08:28:01;;;;;;;13.57;12.27;;;;;;;;;;5064539;28;20446;-78
2023/04/17 08:30:29;;;;;;;14.00;12.67;;;;;;;;;;5061783;28;20446;-76
2023/04/17 08:32:56;;;;;;;13.50;12.20;;;;;;;;;;5060903;28;20500;-76
2023/04/17 08:35:33;;;;;;;12.93;11.63;;;;;;;;;;5061015;28;20481;-78
2023/04/17 08:38:01;;;;;;;13.20;12.00;;;;;;;;;;5060410;28;21016;-78
2023/04/17 08:40:29;;;;;;;13.27;11.97;;;;;;;;;;5060716;28;20457;-77
2023/04/17 08:43:03;;;;;;;13.20;11.90;;;;;;;;;;5061047;28;20450;-76
2023/04/17 08:45:35;;;;;;;13.60;12.20;;;;;;;;;;5062664;28;20431;-76
2023/04/17 08:48:05;;;;;;;13.40;11.93;;;;;;;;;;5060615;28;20474;-77
2023/04/17 08:50:33;;;;;;;13.30;11.83;;;;;;;;;;5058458;28;20465;-75
2023/04/17 08:53:01;;;;;;;12.80;11.60;;;;;;;;;;5055937;28;20441;-76
2023/04/17 08:55:29;;;;;;;11.83;10.73;;;;;;;;;;5053371;28;20480;-77
2023/04/17 08:57:57;;;;;;;11.80;10.70;;;;;;;;;;5052911;28;20472;-78
2023/04/17 09:00:26;;;;;;;12.67;11.37;;;;;;;;;;5052925;28;20843;-77
2023/04/17 09:02:56;;;;;;;12.00;10.70;;;;;;;;;;5053886;28;20921;-77
2023/04/17 09:05:25;;;;;;;11.67;10.57;;;;;;;;;;5055412;28;20628;-77
2023/04/17 09:08:06;;;;;;;12.13;10.87;;;;;;;;;;5056395;28;20716;-76
2023/04/17 09:10:37;;;;;;;11.53;10.43;;;;;;;;;;5056571;28;20442;-77
2023/04/17 09:13:05;;;;;;;12.67;11.37;;;;;;;;;;5056058;28;20477;-77
2023/04/17 09:15:33;;;;;;;11.70;10.50;;;;;;;;;;5058901;28;20470;-78
2023/04/17 09:18:02;;;;;;;11.67;10.43;;;;;;;;;;5060250;28;20564;-77
2023/04/17 09:20:30;;;;;;;11.83;10.63;;;;;;;;;;5056808;28;20579;-77
2023/04/17 09:23:01;;;;;;;10.87;9.77;;;;;;;;;;5055329;28;20449;-76
2023/04/17 09:25:29;;;;;;;11.30;10.10;;;;;;;;;;5054286;28;20556;-77
2023/04/17 09:28:02;;;;;;;11.70;10.47;;;;;;;;;;5053438;28;20549;-78
2023/04/17 09:30:37;;;;;;;12.33;11.13;;;;;;;;;;5053696;28;20543;-77
2023/04/17 09:33:09;;;;;;;11.23;10.20;;;;;;;;;;5058659;28;20468;-77
2023/04/17 09:35:38;;;;;;;12.77;10.67;;;;;;;;;;5057556;28;20504;-78
2023/04/17 09:38:06;;;;;;;13.40;12.10;;;;;;;;;;5056593;28;20473;-77
2023/04/17 09:40:40;;;;;;;10.70;9.70;;;;;;;;;;5056286;28;20461;-77
2023/04/17 09:43:09;;;;;;;10.63;9.63;;;;;;;;;;5055851;28;20503;-79
2023/04/17 09:45:38;;;;;;;9.50;8.60;;;;;;;;;;5053438;28;20944;-76
2023/04/17 09:48:09;;;;;;;11.37;10.27;;;;;;;;;;5052909;28;20875;-76
2023/04/17 09:50:37;;;;;;;9.73;8.80;;;;;;;;;;5052952;28;20441;-77
2023/04/17 09:53:08;;;;;;;9.70;8.47;;;;;;;;;;5053408;28;20466;-75
2023/04/17 09:55:36;;;;;;;9.87;9.00;;;;;;;;;;5051588;28;20458;-77
2023/04/17 09:58:06;;;;;;;7.97;7.27;;;;;;;;;;5052172;28;20462;-77
2023/04/17 10:00:35;;;;;;;8.40;7.60;;;;;;;;;;5051984;28;20477;-80
2023/04/17 10:03:02;;;;;;;10.00;9.03;;;;;;;;;;5052416;28;20804;-78
2023/04/17 10:05:32;;;;;;;8.50;7.80;;;;;;;;;;5052122;28;20953;-78
2023/04/17 10:07:59;;;;;;;8.73;7.43;;;;;;;;;;5052520;28;20473;-79
2023/04/17 10:10:29;;;;;;;9.13;8.00;;;;;;;;;;5052211;28;20437;-77
2023/04/17 10:12:57;;;;;;;8.20;7.50;;;;;;;;;;5053323;28;20456;-78
2023/04/17 10:15:28;;;;;;;8.33;7.63;;;;;;;;;;5052419;28;20458;-76
2023/04/17 10:17:56;;;;;;;9.50;7.83;;;;;;;;;;5045856;28;20454;-77
2023/04/17 10:20:36;;;;;;;9.73;8.30;;;;;;;;;;5032669;28;20474;-77
2023/04/17 10:23:20;;;;;;;8.47;7.67;;;;;;;;;;5032298;28;20545;-76
2023/04/17 10:25:48;;;;;;;7.87;7.17;;;;;;;;;;5032061;28;20976;-76
2023/04/17 10:28:36;;;;;;;9.33;8.43;;;;;;;;;;5033215;28;20493;-76
2023/04/17 10:31:05;;;;;;;7.80;7.10;;;;;;;;;;5035638;28;20450;-77
2023/04/17 10:33:33;;;;;;;8.10;7.40;;;;;;;;;;5038626;28;20454;-77
2023/04/17 10:36:04;;;;;;;7.77;7.07;;;;;;;;;;5038756;28;20490;-76
2023/04/17 10:38:32;;;;;;;8.57;7.77;;;;;;;;;;5038711;28;20536;-77
2023/04/17 10:41:03;;;;;;;7.80;7.10;;;;;;;;;;5038667;28;20885;-77
2023/04/17 10:43:32;;;;;;;6.37;5.80;;;;;;;;;;5037526;28;20454;-78
2023/04/17 10:46:05;;;;;;;6.37;5.87;;;;;;;;;;5036543;28;20435;-79
2023/04/17 10:48:34;;;;;;;7.10;6.50;;;;;;;;;;5037399;28;20484;-78
2023/04/17 10:51:25;;;;;;;5.87;5.37;;;;;;;;;;5036295;28;20584;-78
2023/04/17 10:53:57;;;;;;;5.97;5.47;;;;;;;;;;5035786;28;20438;-78
2023/04/17 10:56:25;;;;;;;5.37;4.87;;;;;;;;;;5035721;28;20478;-78
2023/04/17 10:58:59;;;;;;;6.23;5.73;;;;;;;;;;5035788;28;20504;-76
2023/04/17 11:01:32;;;;;;;9.00;8.10;;;;;;;;;;5035457;28;20442;-78
2023/04/17 11:04:00;;;;;;;5.40;5.00;;;;;;;;;;5035810;28;20481;-77
2023/04/17 11:06:32;;;;;;;5.50;5.10;;;;;;;;;;5035788;28;20471;-77
2023/04/17 11:09:00;;;;;;;5.03;4.60;;;;;;;;;;5036253;28;20457;-77
2023/04/17 11:11:27;;;;;;;5.40;4.97;;;;;;;;;;5036568;28;20445;-77
2023/04/17 11:13:55;;;;;;;5.40;5.00;;;;;;;;;;5036106;28;20446;-79
2023/04/17 11:16:23;;;;;;;5.67;5.27;;;;;;;;;;5036091;28;20490;-76
2023/04/17 11:18:52;;;;;;;6.30;5.90;;;;;;;;;;5037369;28;20450;-77
2023/04/17 11:21:20;;;;;;;5.97;5.47;;;;;;;;;;5035781;28;20461;-76
2023/04/17 11:23:52;;;;;;;6.53;6.03;;;;;;;;;;5036281;28;20453;-75
2023/04/17 11:26:22;;;;;;;5.73;5.23;;;;;;;;;;5036760;28;20471;-77
2023/04/17 11:28:50;;;;;;;6.17;5.73;;;;;;;;;;5036185;28;20527;-76
2023/04/17 11:31:18;;;;;;;6.70;6.10;;;;;;;;;;5035762;28;20466;-78
2023/04/17 11:33:49;;;;;;;7.20;6.60;;;;;;;;;;5035702;28;20458;-77
2023/04/17 11:36:17;;;;;;;6.80;6.13;;;;;;;;;;5035104;28;20478;-77
2023/04/17 11:38:47;;;;;;;5.97;5.50;;;;;;;;;;5036711;28;20530;-77
2023/04/17 11:41:25;;;;;;;5.87;5.40;;;;;;;;;;5036839;28;20454;-77
2023/04/17 11:43:56;;;;;;;6.17;5.70;;;;;;;;;;5037792;28;20541;-77
2023/04/17 11:46:30;;;;;;;5.70;5.20;;;;;;;;;;5037443;28;20474;-76
2023/04/17 11:49:07;;;;;;;5.13;4.80;;;;;;;;;;5036642;28;20486;-76
2023/04/17 11:51:35;;;;;;;7.60;5.40;;;;;;;;;;5037667;28;20462;-76
2023/04/17 11:54:06;;;;;;;6.03;5.43;;;;;;;;;;5036986;28;20442;-77
2023/04/17 11:56:36;;;;;;;6.40;5.80;;;;;;;;;;5036774;28;20982;-77
2023/04/17 11:59:07;;;;;;;7.40;6.00;;;;;;;;;;5035167;28;20508;-77
2023/04/17 12:01:35;;;;;;;6.33;5.83;;;;;;;;;;5034797;28;20446;-75
2023/04/17 12:04:03;;;;;;;5.03;4.63;;;;;;;;;;5034290;28;20447;-78
2023/04/17 12:06:37;;;;;;;5.97;5.47;;;;;;;;;;5034426;28;20458;-77
2023/04/17 12:09:05;;;;;;;6.20;5.70;;;;;;;;;;5034627;28;20457;-76
2023/04/17 12:11:34;;;;;;;6.63;6.10;;;;;;;;;;5034637;28;21020;-76
2023/04/17 12:14:04;;;;;;;7.67;5.97;;;;;;;;;;5034830;28;20454;-77
2023/04/17 12:16:31;;;;;;;6.93;6.33;;;;;;;;;;5035164;28;20902;-76
2023/04/17 12:19:06;;;;;;;5.80;5.40;;;;;;;;;;5051512;28;20457;-75
2023/04/17 12:21:34;;;;;;;5.83;5.43;;;;;;;;;;5054878;28;20436;-77
2023/04/17 12:24:02;;;;;;;6.43;5.87;;;;;;;;;;5054881;28;20508;-79
2023/04/17 12:26:32;;;;;;;6.27;5.67;;;;;;;;;;5053782;28;20470;-77
2023/04/17 12:28:59;;;;;;;5.83;5.33;;;;;;;;;;5053418;28;20441;-78
2023/04/17 12:31:28;;;;;;;6.13;5.63;;;;;;;;;;5053017;28;20460;-77
2023/04/17 12:33:56;;;;;;;6.47;5.90;;;;;;;;;;5052879;28;20472;-79
2023/04/17 12:36:23;;;;;;;5.80;5.30;;;;;;;;;;5052386;28;20552;-77
2023/04/17 12:38:50;;;;;;;5.40;5.00;;;;;;;;;;5052716;28;20492;-78
2023/04/17 12:41:17;;;;;;;6.27;5.77;;;;;;;;;;5051992;28;20461;-77
2023/04/17 12:43:45;;;;;;;6.07;5.50;;;;;;;;;;5052943;28;20536;-79
2023/04/17 12:46:16;;;;;;;5.73;5.23;;;;;;;;;;5053526;28;20448;-78
2023/04/17 12:48:46;;;;;;;6.60;6.00;;;;;;;;;;5054240;28;20503;-78
2023/04/17 12:51:13;;;;;;;6.00;5.60;;;;;;;;;;5053922;28;20441;-77
2023/04/17 12:53:41;;;;;;;6.23;5.73;;;;;;;;;;5052444;28;20871;-78
2023/04/17 12:56:08;;;;;;;5.90;5.50;;;;;;;;;;5053490;28;20507;-77
2023/04/17 12:58:36;;;;;;;6.30;5.90;;;;;;;;;;5053319;28;20568;-76
2023/04/17 13:01:04;;;;;;;5.90;5.50;;;;;;;;;;5054158;28;20453;-77
2023/04/17 13:03:34;;;;;;;5.90;5.40;;;;;;;;;;5055237;28;20930;-76
2023/04/17 13:06:10;;;;;;;5.53;5.13;;;;;;;;;;5054626;28;20929;-75
2023/04/17 13:08:37;;;;;;;6.03;5.53;;;;;;;;;;5053823;28;20824;-77
2023/04/17 13:11:09;;;;;;;5.80;5.30;;;;;;;;;;5053349;28;20825;-77
2023/04/17 13:13:36;;;;;;;6.10;5.60;;;;;;;;;;5053063;28;20452;-76
2023/04/17 13:16:03;;;;;;;6.30;5.80;;;;;;;;;;5052939;28;20473;-77
2023/04/17 13:18:31;;;;;;;6.30;5.70;;;;;;;;;;5041811;28;20484;-76
2023/04/17 13:20:59;;;;;;;6.00;5.50;;;;;;;;;;5033062;28;20913;-77
2023/04/17 13:23:28;;;;;;;7.43;6.63;;;;;;;;;;5032655;28;20454;-76
2023/04/17 13:25:57;;;;;;;5.47;5.07;;;;;;;;;;5032902;28;20462;-76
2023/04/17 13:28:25;;;;;;;5.70;5.20;;;;;;;;;;5033106;28;20446;-77
2023/04/17 13:30:55;;;;;;;5.93;5.47;;;;;;;;;;5034394;28;20465;-77
2023/04/17 13:33:24;;;;;;;4.90;4.53;;;;;;;;;;5034900;28;20949;-77
2023/04/17 13:35:52;;;;;;;6.27;5.77;;;;;;;;;;5033943;28;20447;-76
2023/04/17 13:38:24;;;;;;;6.00;5.60;;;;;;;;;;5033434;28;20478;-78
2023/04/17 13:40:56;;;;;;;6.33;5.83;;;;;;;;;;5034003;28;20537;-77
2023/04/17 13:43:28;;;;;;;6.90;6.13;;;;;;;;;;5031783;28;21018;-76
2023/04/17 13:45:56;;;;;;;6.87;6.30;;;;;;;;;;5032424;28;20464;-76
2023/04/17 13:48:24;;;;;;;6.57;6.07;;;;;;;;;;5033741;28;20461;-77
2023/04/17 13:50:53;;;;;;;6.27;5.80;;;;;;;;;;5034943;28;20469;-75
2023/04/17 13:53:20;;;;;;;5.70;5.30;;;;;;;;;;5035084;28;20949;-78
2023/04/17 13:55:49;;;;;;;5.40;4.90;;;;;;;;;;5037100;28;20461;-77
2023/04/17 13:58:23;;;;;;;6.30;5.80;;;;;;;;;;5035761;28;20552;-78
2023/04/17 14:00:52;;;;;;;6.93;6.33;;;;;;;;;;5034276;28;20442;-78
2023/04/17 14:03:19;;;;;;;5.47;5.07;;;;;;;;;;5033434;28;20819;-77
2023/04/17 14:05:47;;;;;;;5.33;4.93;;;;;;;;;;5033165;28;20533;-77
2023/04/17 14:08:19;;;;;;;5.80;5.30;;;;;;;;;;5034191;28;20474;-78
2023/04/17 14:10:46;;;;;;;6.03;5.53;;;;;;;;;;5033674;28;20520;-77
2023/04/17 14:13:15;;;;;;;5.70;5.17;;;;;;;;;;5032881;28;21017;-77
2023/04/17 14:15:46;;;;;;;6.20;5.70;;;;;;;;;;5034151;28;20493;-77
2023/04/17 14:18:17;;;;;;;5.13;4.83;;;;;;;;;;5044972;28;20485;-76
2023/04/17 14:20:44;;;;;;;6.70;6.10;;;;;;;;;;5056470;28;20445;-78
2023/04/17 14:25:56;;;;;;;5.73;5.23;;;;;;;;;;5056775;28;20453;-76
2023/04/17 14:28:25;;;;;;;5.67;5.27;;;;;;;;;;5057427;28;20435;-75
2023/04/17 14:30:56;;;;;;;6.07;5.60;;;;;;;;;;5059375;28;20555;-77
2023/04/17 14:33:27;;;;;;;6.47;5.97;;;;;;;;;;5052250;28;20456;-77
2023/04/17 14:35:58;;;;;;;5.97;5.47;;;;;;;;;;5051431;28;20528;-76
2023/04/17 14:38:29;;;;;;;5.80;5.30;;;;;;;;;;5054523;28;21062;-77
2023/04/17 14:40:59;;;;;;;6.23;5.73;;;;;;;;;;5034660;28;20461;-77
2023/04/17 14:43:31;;;;;;;5.67;5.27;;;;;;;;;;5052217;28;20477;-76